Time;durP1;ratioP1;P1;durP2;ratioP2;P2;SDS_P1;SDS_P2;PMS_P1;PMS_P2;Temp;Humidity;BMP_temperature;BMP_pressure;BME280_temperature;BME280_humidity;BME280_pressure;Samples;Min_cycle;Max_cycle;Signal;HPM_P1;HPM_P2
2023/02/11 00:00:58;;;;;;;21.50;12.57;;;;;;;-1.38;53.61;96265.75;4210789;28;20048;-54
2023/02/11 00:02:59;;;;;;;22.35;11.77;;;;;;;-1.39;53.76;96271.81;4206824;28;20044;-53
2023/02/11 00:05:01;;;;;;;25.65;13.52;;;;;;;-1.62;54.11;96283.63;4212730;28;20439;-55
2023/02/11 00:07:03;;;;;;;22.98;13.57;;;;;;;-1.86;54.53;96277.50;4204719;28;20048;-56
2023/02/11 00:09:05;;;;;;;22.60;13.48;;;;;;;-2.27;55.61;96279.50;4204883;28;20501;-57
2023/02/11 00:11:11;;;;;;;23.60;12.98;;;;;;;-2.45;56.61;96277.44;4210290;28;20444;-55
2023/02/11 00:13:13;;;;;;;26.35;14.30;;;;;;;-2.48;56.90;96281.78;4211542;28;20048;-58
2023/02/11 00:15:15;;;;;;;25.17;13.05;;;;;;;-2.36;56.26;96279.78;4207252;28;20044;-53
2023/02/11 00:17:16;;;;;;;24.85;13.70;;;;;;;-2.35;56.57;96287.41;4212220;28;20044;-56
2023/02/11 00:19:19;;;;;;;23.60;13.95;;;;;;;-2.30;56.63;96289.88;4201600;28;20094;-56
2023/02/11 00:21:23;;;;;;;28.13;14.63;;;;;;;-2.30;56.17;96290.72;4211182;28;20068;-54
2023/02/11 00:23:25;;;;;;;28.10;14.85;;;;;;;-2.38;56.37;96282.38;4212500;28;20452;-56
2023/02/11 00:25:26;;;;;;;24.60;14.38;;;;;;;-2.42;55.86;96292.78;4212640;28;20048;-56
2023/02/11 00:27:28;;;;;;;23.05;13.10;;;;;;;-2.67;56.67;96285.69;4209170;28;20055;-56
2023/02/11 00:29:29;;;;;;;23.52;13.43;;;;;;;-2.57;56.53;96282.03;4199830;28;20068;-56
2023/02/11 00:31:33;;;;;;;24.15;14.40;;;;;;;-2.42;56.57;96283.34;4211814;28;20159;-56
2023/02/11 00:33:34;;;;;;;27.70;15.05;;;;;;;-2.29;55.88;96281.28;4201011;28;20052;-52
2023/02/11 00:35:37;;;;;;;24.90;14.05;;;;;;;-2.14;55.44;96280.00;4195200;28;20494;-54
2023/02/11 00:37:39;;;;;;;23.48;13.50;;;;;;;-2.06;55.23;96266.06;4197552;28;20048;-53
2023/02/11 00:39:41;;;;;;;21.15;12.90;;;;;;;-1.99;55.00;96271.03;4200479;28;20048;-54
2023/02/11 00:41:42;;;;;;;22.45;12.40;;;;;;;-1.97;54.75;96282.09;4210888;28;20044;-53
2023/02/11 00:43:44;;;;;;;21.98;13.15;;;;;;;-1.92;54.19;96273.34;4212315;28;20071;-56
2023/02/11 00:45:46;;;;;;;23.23;12.23;;;;;;;-1.95;54.40;96265.75;4212303;28;20081;-56
2023/02/11 00:47:48;;;;;;;21.67;12.73;;;;;;;-2.42;55.37;96273.06;4208615;28;20049;-52
2023/02/11 00:49:49;;;;;;;24.00;12.68;;;;;;;-2.47;55.69;96268.06;4197110;28;20095;-53
2023/02/11 00:51:51;;;;;;;23.20;13.82;;;;;;;-2.38;55.74;96268.72;4206473;28;20074;-54
2023/02/11 00:53:53;;;;;;;29.98;13.18;;;;;;;-2.35;55.22;96266.88;4212647;28;20048;-53
2023/02/11 00:55:55;;;;;;;22.45;13.13;;;;;;;-2.52;55.83;96264.81;4206523;28;20044;-56
2023/02/11 00:57:58;;;;;;;23.48;13.75;;;;;;;-2.56;55.78;96263.19;4209222;28;20457;-59
2023/02/11 01:00:00;;;;;;;24.58;14.30;;;;;;;-2.43;55.29;96265.41;4207552;28;20047;-54
2023/02/11 01:02:02;;;;;;;22.17;12.73;;;;;;;-2.34;55.85;96267.75;4212038;28;20539;-54
2023/02/11 01:04:03;;;;;;;24.63;14.20;;;;;;;-2.40;55.51;96262.78;4212603;28;20461;-54
2023/02/11 01:06:07;;;;;;;22.38;12.82;;;;;;;-2.47;55.21;96256.97;4210245;28;20056;-54
2023/02/11 01:08:08;;;;;;;25.10;13.48;;;;;;;-2.52;55.81;96267.38;4212402;28;20055;-53
2023/02/11 01:10:10;;;;;;;24.75;13.98;;;;;;;-2.41;55.62;96263.63;4207643;28;20059;-52
2023/02/11 01:12:12;;;;;;;23.75;13.13;;;;;;;-2.38;54.60;96264.41;4204560;28;20093;-52
2023/02/11 01:14:14;;;;;;;22.85;12.82;;;;;;;-2.36;55.04;96265.22;4208060;28;20105;-52
2023/02/11 01:16:16;;;;;;;21.92;12.40;;;;;;;-2.27;54.58;96261.53;4206320;28;20087;-56
2023/02/11 01:18:18;;;;;;;22.67;12.40;;;;;;;-2.21;54.27;96261.38;4211375;28;20048;-51
2023/02/11 01:20:22;;;;;;;19.77;12.93;;;;;;;-2.36;54.37;96259.25;4207769;28;20417;-55
2023/02/11 01:22:24;;;;;;;22.13;12.65;;;;;;;-2.39;55.05;96265.28;4203825;28;20117;-53
2023/02/11 01:24:27;;;;;;;24.23;13.97;;;;;;;-2.33;54.72;96256.56;4212348;28;20131;-53
2023/02/11 01:26:28;;;;;;;24.05;13.18;;;;;;;-2.34;55.05;96257.47;4205153;28;20277;-53
2023/02/11 01:28:30;;;;;;;22.38;13.25;;;;;;;-2.37;54.32;96262.69;4200718;28;20083;-53
2023/02/11 01:30:32;;;;;;;24.33;13.52;;;;;;;-2.57;54.66;96260.66;4209694;28;20044;-52
2023/02/11 01:32:34;;;;;;;21.10;13.38;;;;;;;-2.98;55.97;96260.03;4209148;28;20575;-52
2023/02/11 01:34:36;;;;;;;23.35;13.20;;;;;;;-3.27;57.10;96253.88;4208581;28;20048;-54
2023/02/11 01:36:37;;;;;;;23.33;13.68;;;;;;;-3.38;57.14;96250.72;4211519;28;20040;-55
2023/02/11 01:38:39;;;;;;;22.58;14.30;;;;;;;-3.42;58.06;96265.34;4207620;28;20048;-54
2023/02/11 01:40:49;;;;;;;27.13;15.95;;;;;;;-3.47;58.51;96259.47;4203705;28;20091;-52
2023/02/11 01:42:51;;;;;;;27.15;14.57;;;;;;;-3.46;57.56;96253.50;4211211;28;20109;-53
2023/02/11 01:44:53;;;;;;;24.67;14.30;;;;;;;-3.37;58.39;96242.19;4202473;28;20107;-53
2023/02/11 01:46:55;;;;;;;27.08;14.95;;;;;;;-3.18;57.39;96248.53;4209386;28;20048;-55
2023/02/11 01:49:08;;;;;;;26.17;14.35;;;;;;;-3.01;57.27;96243.00;4210563;28;20058;-55
2023/02/11 01:51:16;;;;;;;23.83;15.63;;;;;;;-2.80;56.54;96245.88;4206255;28;20123;-53
2023/02/11 01:58:01;;;;;;;26.15;14.93;;;;;;;-2.61;55.44;96239.38;4203329;28;20045;-51
2023/02/11 02:00:09;;;;;;;;;;;;;;;-2.72;56.03;96243.94;4195640;28;20383;-53
2023/02/11 02:02:12;;;;;;;24.95;15.57;;;;;;;-2.76;55.80;96238.06;4208084;28;19977;-52
2023/02/11 02:04:16;;;;;;;25.65;15.32;;;;;;;-2.79;55.95;96239.88;4204351;28;20048;-54
2023/02/11 02:06:44;;;;;;;;;;;;;;;-3.15;56.49;96243.31;4205259;28;20059;-54
2023/02/11 02:08:51;;;;;;;25.92;15.70;;;;;;;-3.14;57.48;96246.72;4196020;28;19943;-53
2023/02/11 02:10:55;;;;;;;27.50;16.23;;;;;;;-3.20;57.37;96245.19;4209939;28;20055;-53
2023/02/11 02:12:57;;;;;;;26.73;15.13;;;;;;;-3.28;57.54;96246.25;4209921;28;20468;-50
2023/02/11 02:15:18;;;;;;;25.50;15.10;;;;;;;-3.40;57.62;96257.63;4210943;28;20040;-56
2023/02/11 02:17:33;;;;;;;28.17;15.68;;;;;;;-3.33;57.92;96248.91;4205279;28;20124;-53
2023/02/11 02:19:43;;;;;;;28.73;16.20;;;;;;;-3.17;57.76;96245.09;4205425;28;20059;-56
2023/02/11 02:22:30;;;;;;;24.02;15.25;;;;;;;-2.98;56.74;96239.50;4211087;28;20059;-56
2023/02/11 02:25:09;;;;;;;26.67;15.30;;;;;;;-2.97;56.20;96248.88;4199667;28;20056;-57
2023/02/11 02:27:16;;;;;;;26.17;15.50;;;;;;;-2.93;56.12;96246.19;4206726;28;20043;-56
2023/02/11 02:29:35;;;;;;;25.10;14.50;;;;;;;-2.86;56.29;96240.91;4205895;28;20040;-55
2023/02/11 02:32:13;;;;;;;23.67;14.43;;;;;;;-2.78;55.11;96242.38;4198224;28;20048;-51
2023/02/11 02:34:40;;;;;;;27.45;14.63;;;;;;;-2.74;55.33;96238.03;4202147;28;20091;-56
2023/02/11 02:36:56;;;;;;;23.92;14.88;;;;;;;-2.72;54.90;96239.66;4209884;28;20044;-53
2023/02/11 02:39:09;;;;;;;26.73;14.43;;;;;;;-2.73;55.10;96234.56;4202025;28;20052;-52
2023/02/11 02:41:16;;;;;;;22.40;14.07;;;;;;;-2.70;54.98;96235.31;4192825;28;20149;-54
2023/02/11 02:43:19;;;;;;;22.00;13.70;;;;;;;-2.69;54.01;96244.72;4206088;28;20422;-52
2023/02/11 02:45:21;;;;;;;20.85;13.60;;;;;;;-2.76;54.16;96235.47;4196705;28;20059;-53
2023/02/11 02:47:22;;;;;;;20.75;13.05;;;;;;;-2.77;54.58;96238.13;4206892;28;20128;-55
2023/02/11 02:49:24;;;;;;;22.02;13.00;;;;;;;-2.77;54.76;96228.69;4211230;28;20048;-57
2023/02/11 02:51:31;;;;;;;20.48;13.50;;;;;;;-2.89;54.14;96231.56;4210736;28;20113;-55
2023/02/11 02:53:54;;;;;;;21.00;13.18;;;;;;;-2.84;54.51;96237.41;4198813;28;20052;-54
2023/02/11 02:56:03;;;;;;;25.45;14.50;;;;;;;-2.80;54.17;96235.63;4211805;28;20100;-56
2023/02/11 02:58:52;;;;;;;24.23;14.57;;;;;;;-2.81;54.02;96239.06;4209001;28;20093;-54
2023/02/11 03:01:56;;;;;;;25.33;13.95;;;;;;;-2.83;54.70;96243.41;4259323;27;20370;-54
2023/02/11 03:04:07;;;;;;;27.00;15.50;;;;;;;-2.74;54.17;96240.59;4234304;28;20056;-60
2023/02/11 03:06:30;;;;;;;27.00;14.13;;;;;;;-2.78;54.27;96242.38;4243364;27;20451;-60
2023/02/11 03:08:54;;;;;;;28.67;15.18;;;;;;;-2.76;54.46;96239.78;4259420;27;20046;-59
2023/02/11 03:10:56;;;;;;;23.85;14.10;;;;;;;-2.73;53.87;96234.56;4243293;27;20078;-60
2023/02/11 03:12:58;;;;;;;24.55;14.02;;;;;;;-2.75;53.91;96237.19;4246718;27;20066;-59
2023/02/11 03:15:02;;;;;;;22.50;13.80;;;;;;;-2.66;54.27;96235.25;4250660;27;20047;-60
2023/02/11 03:17:05;;;;;;;24.98;14.02;;;;;;;-2.82;53.85;96240.78;4237843;27;20047;-61
2023/02/11 03:19:19;;;;;;;25.13;14.13;;;;;;;-2.80;54.03;96238.19;4248352;27;20561;-60
2023/02/11 03:21:21;;;;;;;26.13;13.60;;;;;;;-2.80;54.39;96235.63;4250573;27;20046;-58
2023/02/11 03:23:28;;;;;;;26.25;14.30;;;;;;;-2.80;54.62;96235.63;4260228;27;20055;-60
2023/02/11 03:25:37;;;;;;;21.77;12.65;;;;;;;-2.75;54.17;96244.03;4256973;27;20047;-60
2023/02/11 03:27:50;;;;;;;22.88;13.45;;;;;;;-2.72;53.69;96237.09;4269256;27;20111;-60
2023/02/11 03:30:18;;;;;;;21.15;13.60;;;;;;;-2.83;54.17;96238.28;4252190;27;20043;-60
2023/02/11 03:32:33;;;;;;;21.52;12.95;;;;;;;-3.04;55.20;96235.38;4241983;27;20066;-60
2023/02/11 03:34:43;;;;;;;23.55;13.98;;;;;;;-3.15;55.13;96237.38;4249803;27;20108;-59
2023/02/11 03:36:55;;;;;;;24.15;13.68;;;;;;;-3.18;55.91;96234.88;4240981;28;20048;-60
2023/02/11 03:38:59;;;;;;;26.40;15.13;;;;;;;-3.24;55.37;96233.31;4247822;27;20046;-59
2023/02/11 03:41:02;;;;;;;21.88;13.90;;;;;;;-3.38;56.38;96233.63;4258568;27;20047;-59
2023/02/11 03:43:10;;;;;;;30.10;15.20;;;;;;;-3.47;55.65;96235.59;4257784;27;20130;-60
2023/02/11 03:45:16;;;;;;;24.30;14.90;;;;;;;-3.65;57.48;96232.59;4258662;27;20050;-59
2023/02/11 03:47:20;;;;;;;25.75;16.13;;;;;;;-4.01;57.97;96244.50;4258188;27;20054;-60
2023/02/11 03:49:24;;;;;;;23.92;15.75;;;;;;;-4.03;58.47;96241.97;4259658;27;20093;-60
2023/02/11 03:51:25;;;;;;;;;;;;;;;-4.10;58.19;96235.28;4260398;27;20507;-58
2023/02/11 03:53:27;;;;;;;27.40;16.30;;;;;;;-4.06;58.04;96238.63;4274486;27;19922;-60
2023/02/11 03:55:32;;;;;;;31.13;15.25;;;;;;;-4.10;58.37;96234.47;4258766;27;20047;-62
2023/02/11 03:57:34;;;;;;;26.38;16.65;;;;;;;-4.07;58.72;96231.81;4247369;27;20047;-54
2023/02/11 03:59:55;;;;;;;23.63;15.60;;;;;;;-4.08;58.48;96240.38;4254553;27;20046;-60
2023/02/11 04:01:58;;;;;;;30.63;16.77;;;;;;;-3.98;58.06;96241.84;4257459;27;20111;-59
2023/02/11 04:04:00;;;;;;;24.92;15.77;;;;;;;-3.84;57.43;96234.72;4259055;27;20447;-58
2023/02/11 04:06:01;;;;;;;28.02;16.60;;;;;;;-3.68;57.38;96240.31;4245924;27;20047;-59
2023/02/11 04:08:04;;;;;;;27.73;16.63;;;;;;;-3.63;56.60;96242.81;4256462;27;20055;-61
2023/02/11 04:10:06;;;;;;;25.50;15.27;;;;;;;-3.82;57.62;96235.53;4259875;27;20042;-59
2023/02/11 04:12:07;;;;;;;30.60;16.95;;;;;;;-3.89;57.66;96240.81;4247952;27;20055;-60
2023/02/11 04:14:09;;;;;;;29.83;16.90;;;;;;;-4.16;58.47;96243.09;4243991;27;20071;-59
2023/02/11 04:16:11;;;;;;;29.90;16.77;;;;;;;-4.33;58.64;96243.44;4252341;27;20150;-60
2023/02/11 04:18:12;;;;;;;26.80;17.00;;;;;;;-4.15;58.85;96239.66;4239580;27;20138;-58
2023/02/11 04:20:14;;;;;;;23.58;15.57;;;;;;;-3.98;58.80;96240.16;4244294;27;20118;-60
2023/02/11 04:22:16;;;;;;;25.48;15.02;;;;;;;-4.00;58.33;96241.03;4256607;27;20074;-59
2023/02/11 04:24:17;;;;;;;29.42;16.98;;;;;;;-4.18;58.82;96240.56;4247992;27;20099;-60
2023/02/11 04:26:19;;;;;;;29.15;17.30;;;;;;;-4.34;59.26;96246.88;4243409;27;20075;-59
2023/02/11 04:28:21;;;;;;;31.10;18.42;;;;;;;-4.67;60.22;96240.72;4247068;27;20043;-61
2023/02/11 04:30:22;;;;;;;30.40;18.15;;;;;;;-4.72;60.47;96234.84;4247676;27;20051;-60
2023/02/11 04:32:24;;;;;;;30.15;17.85;;;;;;;-4.66;60.42;96238.13;4233284;27;20043;-61
2023/02/11 04:34:26;;;;;;;30.25;18.02;;;;;;;-4.51;60.15;96237.00;4247852;27;20051;-59
2023/02/11 04:36:28;;;;;;;29.08;16.67;;;;;;;-4.36;59.73;96230.72;4247527;27;20443;-60
2023/02/11 04:38:29;;;;;;;33.15;17.80;;;;;;;-4.40;59.03;96239.34;4246877;27;20403;-59
2023/02/11 04:40:31;;;;;;;30.65;18.23;;;;;;;-4.24;59.46;96227.91;4247499;27;20087;-60
2023/02/11 04:42:33;;;;;;;28.95;17.40;;;;;;;-4.17;58.58;96224.34;4247473;27;20061;-60
2023/02/11 04:44:34;;;;;;;33.20;18.25;;;;;;;-4.14;58.10;96221.72;4246807;27;20058;-60
2023/02/11 04:46:36;;;;;;;27.20;17.05;;;;;;;-4.00;58.25;96225.69;4246277;27;20054;-63
2023/02/11 04:48:38;;;;;;;28.85;17.40;;;;;;;-4.07;57.72;96226.69;4234539;27;20051;-60
2023/02/11 04:50:40;;;;;;;31.67;18.58;;;;;;;-4.04;57.86;96226.63;4247420;27;20047;-59
2023/02/11 04:52:42;;;;;;;38.85;21.45;;;;;;;-4.02;58.13;96225.75;4247743;27;20054;-62
2023/02/11 04:54:43;;;;;;;67.72;33.20;;;;;;;-3.94;57.26;96226.41;4244538;27;20086;-61
2023/02/11 04:56:45;;;;;;;32.80;19.25;;;;;;;-3.83;57.35;96226.19;4244285;27;20434;-59
2023/02/11 04:58:47;;;;;;;34.53;20.33;;;;;;;-3.74;56.35;96213.16;4247269;27;20050;-59
2023/02/11 05:00:48;;;;;;;32.28;17.83;;;;;;;-3.75;56.50;96231.09;4236881;27;20087;-60
2023/02/11 05:02:50;;;;;;;29.70;17.15;;;;;;;-3.76;56.65;96220.03;4245911;27;20693;-60
2023/02/11 05:04:52;;;;;;;30.88;16.83;;;;;;;-3.74;57.24;96218.28;4234602;27;20174;-61
2023/02/11 05:06:53;;;;;;;33.08;18.38;;;;;;;-3.64;56.21;96208.63;4243574;27;20059;-60
2023/02/11 05:08:58;;;;;;;31.38;17.88;;;;;;;-3.59;56.66;96206.84;4247853;27;20047;-61
2023/02/11 05:11:01;;;;;;;27.42;16.58;;;;;;;-3.65;56.22;96206.13;4229563;27;20519;-60
2023/02/11 05:13:02;;;;;;;26.80;16.30;;;;;;;-3.85;56.43;96212.56;4243515;27;20046;-60
2023/02/11 05:15:04;;;;;;;29.67;17.88;;;;;;;-4.15;57.59;96206.38;4236339;27;20051;-60
2023/02/11 05:17:07;;;;;;;33.20;20.15;;;;;;;-4.37;57.98;96211.13;4234353;27;20104;-61
2023/02/11 05:19:08;;;;;;;34.13;20.50;;;;;;;-4.49;58.69;96216.50;4235527;27;20047;-59
2023/02/11 05:21:13;;;;;;;37.33;20.15;;;;;;;-4.44;58.25;96214.69;4246426;27;20130;-60
2023/02/11 05:23:15;;;;;;;33.47;18.35;;;;;;;-4.50;58.87;96218.19;4235490;27;20140;-60
2023/02/11 05:25:17;;;;;;;35.03;19.73;;;;;;;-4.54;59.02;96214.00;4236214;27;20043;-62
2023/02/11 05:27:19;;;;;;;36.45;20.80;;;;;;;-4.79;59.12;96214.50;4243563;27;20658;-63
2023/02/11 05:29:20;;;;;;;32.13;18.27;;;;;;;-4.87;59.27;96216.38;4239954;27;20492;-62
2023/02/11 05:31:22;;;;;;;31.38;18.73;;;;;;;-4.77;59.66;96210.22;4244865;27;20047;-61
2023/02/11 05:33:24;;;;;;;33.97;19.40;;;;;;;-4.62;59.56;96216.75;4235374;27;20055;-62
2023/02/11 05:35:25;;;;;;;36.80;19.83;;;;;;;-4.51;57.92;96213.13;4244999;27;20130;-61
2023/02/11 05:37:27;;;;;;;38.15;20.63;;;;;;;-4.56;58.37;96211.50;4238410;27;20047;-61
2023/02/11 05:39:29;;;;;;;41.38;21.08;;;;;;;-4.45;58.62;96205.31;4241128;27;20051;-62
2023/02/11 05:41:30;;;;;;;31.70;19.17;;;;;;;-4.23;58.13;96216.78;4242127;27;20043;-60
2023/02/11 05:43:34;;;;;;;32.58;19.40;;;;;;;-4.10;58.23;96211.44;4244772;27;20051;-61
2023/02/11 05:45:35;;;;;;;40.25;20.25;;;;;;;-4.03;57.93;96208.69;4233563;27;20047;-62
2023/02/11 05:47:37;;;;;;;38.92;21.63;;;;;;;-3.81;57.48;96213.31;4245396;27;20055;-62
2023/02/11 05:49:39;;;;;;;34.15;19.65;;;;;;;-3.88;57.17;96214.34;4244812;27;20139;-61
2023/02/11 05:51:40;;;;;;;33.25;19.85;;;;;;;-3.94;57.60;96215.31;4244509;27;20055;-62
2023/02/11 05:53:42;;;;;;;34.92;20.02;;;;;;;-4.11;58.16;96213.13;4246501;27;20039;-62
2023/02/11 05:55:44;;;;;;;32.22;18.77;;;;;;;-4.19;58.27;96215.03;4245603;27;20099;-62
2023/02/11 05:57:45;;;;;;;34.03;20.00;;;;;;;-4.42;58.63;96211.22;4244578;27;20080;-61
2023/02/11 05:59:47;;;;;;;33.15;20.13;;;;;;;-4.70;59.71;96226.28;4244481;27;20533;-60
2023/02/11 06:01:48;;;;;;;36.08;21.83;;;;;;;-4.54;60.00;96227.66;4230008;28;20039;-62
2023/02/11 06:03:50;;;;;;;42.13;23.00;;;;;;;-4.63;59.89;96225.28;4236553;27;20475;-60
2023/02/11 06:05:52;;;;;;;40.22;21.85;;;;;;;-4.81;60.28;96229.03;4246512;27;20546;-62
2023/02/11 06:07:54;;;;;;;37.90;22.85;;;;;;;-4.72;60.21;96222.91;4246648;27;20051;-62
2023/02/11 06:09:56;;;;;;;40.97;24.33;;;;;;;-4.70;60.35;96228.84;4246703;27;20067;-61
2023/02/11 06:11:58;;;;;;;48.53;28.23;;;;;;;-4.71;60.53;96224.59;4245530;27;20043;-61
2023/02/11 06:14:00;;;;;;;49.05;28.73;;;;;;;-4.56;60.65;96234.53;4245334;27;20128;-61
2023/02/11 06:16:02;;;;;;;49.72;28.25;;;;;;;-4.49;59.98;96232.69;4252819;27;20070;-61
2023/02/11 06:18:04;;;;;;;44.65;26.95;;;;;;;-4.41;60.12;96230.81;4245528;27;20069;-62
2023/02/11 06:20:07;;;;;;;45.97;28.08;;;;;;;-4.48;60.04;96238.63;4243695;27;20050;-61
2023/02/11 06:22:09;;;;;;;45.63;26.38;;;;;;;-4.42;60.59;96235.97;4235192;27;20039;-59
2023/02/11 06:24:11;;;;;;;43.60;26.17;;;;;;;-4.49;60.29;96236.97;4237979;27;20043;-61
2023/02/11 06:26:19;;;;;;;43.60;25.23;;;;;;;-4.40;60.50;96236.78;4232870;27;20112;-62
2023/02/11 06:28:21;;;;;;;45.78;26.88;;;;;;;-4.32;60.05;96238.31;4244933;27;20039;-62
2023/02/11 06:30:23;;;;;;;50.22;26.23;;;;;;;-4.23;59.95;96228.75;4232465;27;20043;-61
2023/02/11 06:32:26;;;;;;;42.92;25.65;;;;;;;-4.14;60.30;96233.69;4244279;27;20089;-60
2023/02/11 06:34:45;;;;;;;41.63;24.75;;;;;;;-3.94;59.40;96230.66;4244421;27;20069;-60
2023/02/11 06:36:47;;;;;;;47.80;25.70;;;;;;;-3.86;59.00;96230.50;4231870;27;20059;-64
2023/02/11 06:38:49;;;;;;;46.72;26.02;;;;;;;-3.81;60.10;96237.19;4242986;27;20549;-62
2023/02/11 06:40:51;;;;;;;49.15;27.95;;;;;;;-4.00;58.73;96233.34;4235231;27;20051;-62
2023/02/11 06:42:53;;;;;;;47.83;29.80;;;;;;;-4.34;60.14;96240.06;4235851;27;20081;-62
2023/02/11 06:44:54;;;;;;;57.47;31.95;;;;;;;-4.35;60.09;96250.31;4229740;28;20187;-61
2023/02/11 06:46:56;;;;;;;50.40;28.77;;;;;;;-4.17;60.44;96244.00;4245419;27;20047;-63
2023/02/11 06:48:58;;;;;;;49.13;28.50;;;;;;;-4.22;60.31;96240.66;4245690;27;20039;-61
2023/02/11 06:51:08;;;;;;;49.47;26.85;;;;;;;-4.27;60.82;96245.03;4243976;27;20063;-58
2023/02/11 06:53:10;;;;;;;48.08;26.55;;;;;;;-4.14;61.28;96239.63;4243500;27;20144;-62
2023/02/11 06:55:11;;;;;;;46.47;26.83;;;;;;;-4.10;60.19;96240.41;4232667;27;20232;-61
2023/02/11 06:57:13;;;;;;;55.70;28.67;;;;;;;-4.22;61.40;96244.06;4244738;27;20467;-62
2023/02/11 06:59:16;;;;;;;54.60;29.50;;;;;;;-4.21;60.80;96240.63;4246025;28;20051;-61
2023/02/11 07:01:17;;;;;;;55.87;29.93;;;;;;;-4.47;61.68;96247.97;4243379;27;20099;-61
2023/02/11 07:03:19;;;;;;;57.25;31.85;;;;;;;-4.40;61.73;96242.72;4245786;27;20047;-61
2023/02/11 07:05:21;;;;;;;59.55;31.40;;;;;;;-4.39;61.65;96247.00;4243235;27;20047;-61
2023/02/11 07:07:22;;;;;;;60.58;31.88;;;;;;;-4.39;61.78;96244.44;4245747;28;20456;-62
2023/02/11 07:09:24;;;;;;;55.15;33.00;;;;;;;-4.27;61.42;96242.50;4244485;28;20055;-62
2023/02/11 07:11:27;;;;;;;60.92;33.03;;;;;;;-4.46;62.10;96247.13;4245805;27;20051;-61
2023/02/11 07:13:29;;;;;;;57.17;32.88;;;;;;;-4.40;61.79;96247.84;4244230;27;20133;-61
2023/02/11 07:15:31;;;;;;;63.17;31.17;;;;;;;-4.28;61.64;96231.41;4238993;28;20044;-62
2023/02/11 07:17:34;;;;;;;47.97;27.67;;;;;;;-3.91;60.84;96238.31;4241972;28;20205;-63
2023/02/11 07:19:36;;;;;;;51.88;29.15;;;;;;;-3.60;60.29;96237.59;4246057;27;20050;-62
2023/02/11 07:21:37;;;;;;;46.47;25.92;;;;;;;-3.58;59.55;96226.44;4231502;28;20209;-63
2023/02/11 07:23:42;;;;;;;35.90;21.65;;;;;;;-3.45;59.40;96223.59;4245897;27;20050;-51
2023/02/11 07:25:43;;;;;;;41.70;21.25;;;;;;;-3.27;58.43;96215.44;4244920;27;20051;-55
2023/02/11 07:27:45;;;;;;;34.53;18.33;;;;;;;-3.10;58.25;96222.69;4243488;27;20490;-51
2023/02/11 07:29:47;;;;;;;36.30;18.42;;;;;;;-2.94;57.70;96223.16;4258276;27;20035;-58
2023/02/11 07:31:49;;;;;;;31.10;16.73;;;;;;;-2.89;57.54;96211.06;4262161;27;20043;-54
2023/02/11 07:33:52;;;;;;;38.15;17.67;;;;;;;-2.71;56.96;96212.28;4259160;27;20072;-58
2023/02/11 07:35:54;;;;;;;31.20;16.38;;;;;;;-2.53;56.53;96211.78;4232411;28;20563;-59
2023/02/11 07:37:55;;;;;;;32.13;16.95;;;;;;;-2.29;55.44;96201.69;4258028;27;20078;-57
2023/02/11 07:39:57;;;;;;;31.50;16.83;;;;;;;-2.24;55.25;96204.13;4232080;27;20069;-59
2023/02/11 07:41:59;;;;;;;30.70;16.15;;;;;;;-2.75;56.57;96206.41;4244379;28;20047;-56
2023/02/11 07:44:02;;;;;;;33.38;16.33;;;;;;;-2.63;56.68;96202.66;4245892;27;20596;-56
2023/02/11 07:46:05;;;;;;;32.45;16.77;;;;;;;-2.71;55.67;96207.13;4237171;27;20082;-57
2023/02/11 07:48:07;;;;;;;34.60;17.42;;;;;;;-2.91;57.04;96195.69;4243435;27;20122;-57
2023/02/11 07:50:09;;;;;;;33.83;16.42;;;;;;;-2.75;56.74;96197.88;4232789;27;20058;-57
2023/02/11 07:52:10;;;;;;;27.95;15.80;;;;;;;-2.44;55.98;96197.00;4237101;27;20035;-58
2023/02/11 07:54:12;;;;;;;33.58;16.92;;;;;;;-2.78;56.35;96203.91;4248847;27;20043;-57
2023/02/11 07:56:15;;;;;;;33.83;16.23;;;;;;;-2.52;55.89;96192.94;4236085;27;20499;-56
2023/02/11 07:58:16;;;;;;;31.45;17.38;;;;;;;-2.64;56.28;96200.97;4244676;27;20086;-55
2023/02/11 08:00:18;;;;;;;29.30;15.43;;;;;;;-2.31;55.17;96196.59;4238174;27;20059;-56
2023/02/11 08:02:21;;;;;;;30.48;15.75;;;;;;;-1.97;54.66;96199.91;4245669;27;20047;-56
2023/02/11 08:04:23;;;;;;;32.08;16.48;;;;;;;-1.77;53.59;96191.59;4231639;28;20048;-58
2023/02/11 08:06:28;;;;;;;27.73;15.40;;;;;;;-1.60;53.10;96186.75;4240384;27;20446;-56
2023/02/11 08:08:29;;;;;;;26.15;14.48;;;;;;;-1.44;52.26;96187.13;4248598;27;20123;-58
2023/02/11 08:10:31;;;;;;;29.30;15.93;;;;;;;-1.44;52.85;96187.13;4248069;27;20490;-53
2023/02/11 08:12:32;;;;;;;27.20;16.60;;;;;;;-1.21;52.41;96194.06;4248493;27;20123;-55
2023/02/11 08:14:34;;;;;;;26.75;15.23;;;;;;;-1.09;52.03;96183.38;4247632;27;20074;-56
2023/02/11 08:16:37;;;;;;;34.03;17.23;;;;;;;-1.07;51.97;96186.72;4261218;27;20047;-56
2023/02/11 08:18:39;;;;;;;38.55;19.65;;;;;;;-1.08;52.16;96185.03;4230992;27;20048;-57
2023/02/11 08:20:41;;;;;;;27.27;16.40;;;;;;;-1.11;52.13;96192.03;4231382;27;20081;-54
2023/02/11 08:22:42;;;;;;;30.30;15.95;;;;;;;-0.96;52.25;96195.81;4231709;27;20050;-56
2023/02/11 08:24:44;;;;;;;30.52;16.63;;;;;;;-0.91;52.20;96187.03;4244650;27;20099;-57
2023/02/11 08:26:46;;;;;;;31.80;17.63;;;;;;;-0.77;51.61;96198.59;4231350;27;20075;-57
2023/02/11 08:28:49;;;;;;;26.65;15.15;;;;;;;-0.71;51.80;96190.66;4239396;27;20047;-57
2023/02/11 08:30:51;;;;;;;30.38;16.10;;;;;;;-0.60;51.45;96192.84;4230226;28;20047;-58
2023/02/11 08:32:53;;;;;;;35.35;17.77;;;;;;;-1.01;52.74;96193.41;4233059;27;20071;-56
2023/02/11 08:34:55;;;;;;;38.20;20.50;;;;;;;-1.33;54.76;96190.19;4242632;27;20052;-58
2023/02/11 08:36:56;;;;;;;46.40;19.50;;;;;;;-1.49;55.34;96187.25;4236623;27;20043;-59
2023/02/11 08:39:01;;;;;;;31.70;17.25;;;;;;;-1.67;56.50;96196.41;4238606;27;20043;-57
2023/02/11 08:41:18;;;;;;;35.47;18.60;;;;;;;-1.55;56.76;96197.75;4245611;27;20043;-58
2023/02/11 08:43:20;;;;;;;32.47;17.13;;;;;;;-1.14;55.91;96193.00;4247327;27;20055;-56
2023/02/11 08:45:22;;;;;;;34.72;18.38;;;;;;;-1.15;55.11;96199.00;4234770;27;20051;-58
2023/02/11 08:47:23;;;;;;;36.40;18.42;;;;;;;-1.39;55.75;96195.53;4247847;27;20058;-58
2023/02/11 08:49:25;;;;;;;32.67;17.35;;;;;;;-1.25;56.10;96192.47;4248417;27;20059;-54
2023/02/11 08:51:29;;;;;;;34.75;17.92;;;;;;;-1.24;55.44;96189.03;4247156;27;20099;-57
2023/02/11 08:53:30;;;;;;;;;;;;;;;-0.90;54.90;96186.16;4247227;27;20043;-57
2023/02/11 08:55:32;;;;;;;34.47;18.00;;;;;;;-0.54;53.90;96190.88;4248309;27;19919;-63
2023/02/11 08:57:34;;;;;;;34.85;19.17;;;;;;;-0.23;52.91;96192.38;4247252;27;20047;-62
2023/02/11 08:59:35;;;;;;;34.85;20.05;;;;;;;-0.10;52.41;96195.31;4245670;27;20059;-61
2023/02/11 09:01:37;;;;;;;37.17;17.92;;;;;;;-0.52;51.96;96180.53;4246057;27;20035;-61
2023/02/11 09:03:39;;;;;;;35.03;17.70;;;;;;;-0.62;52.46;96191.19;4246656;27;20565;-61
2023/02/11 09:05:42;;;;;;;32.25;17.02;;;;;;;-0.83;52.45;96192.75;4247145;27;20057;-63
2023/02/11 09:07:43;;;;;;;36.88;16.85;;;;;;;-0.53;51.52;96189.16;4247990;27;20039;-63
2023/02/11 09:09:45;;;;;;;29.15;15.18;;;;;;;-0.47;51.14;96179.50;4242537;27;20079;-62
2023/02/11 09:11:47;;;;;;;30.55;14.82;;;;;;;-0.70;51.77;96180.31;4239923;27;20039;-63
2023/02/11 09:13:49;;;;;;;28.17;16.00;;;;;;;-0.96;52.62;96177.81;4247115;27;20055;-62
2023/02/11 09:15:54;;;;;;;32.90;17.40;;;;;;;-1.05;52.97;96176.41;4254904;27;20608;-61
2023/02/11 09:17:56;;;;;;;31.50;16.63;;;;;;;-1.24;52.90;96181.31;4241153;27;20078;-63
2023/02/11 09:19:58;;;;;;;31.65;15.88;;;;;;;-0.89;52.81;96176.69;4230266;28;20258;-62
2023/02/11 09:22:00;;;;;;;30.10;16.50;;;;;;;-0.99;52.72;96181.34;4235255;27;20070;-64
2023/02/11 09:24:02;;;;;;;32.80;16.55;;;;;;;-0.81;52.48;96173.88;4238965;27;20135;-65
2023/02/11 09:26:11;;;;;;;26.73;14.27;;;;;;;-1.23;52.68;96180.41;4243267;27;20078;-55
2023/02/11 09:28:13;;;;;;;28.20;15.48;;;;;;;-1.25;53.19;96170.19;4243336;27;20078;-60
2023/02/11 09:30:14;;;;;;;27.35;14.98;;;;;;;-0.85;52.68;96173.13;4237698;27;20483;-55
2023/02/11 09:32:17;;;;;;;26.45;14.52;;;;;;;-0.60;51.81;96167.09;4245836;27;20043;-57
2023/02/11 09:34:19;;;;;;;31.65;14.27;;;;;;;-0.82;51.37;96170.44;4244714;27;20075;-55
2023/02/11 09:36:27;;;;;;;27.80;14.25;;;;;;;-0.86;51.78;96176.59;4233301;27;20478;-54
2023/02/11 09:38:29;;;;;;;29.58;14.13;;;;;;;-0.92;51.45;96167.38;4230515;28;20112;-57